createdAt,value
2018-09-10T00:09:32.868Z,99.99
2018-09-10T00:19:32.928Z,99.99
2018-09-10T00:29:32.893Z,99.99
2018-09-10T00:39:32.898Z,99.99
2018-09-10T00:49:32.883Z,99.99
2018-09-10T00:59:32.886Z,99.99
2018-09-10T01:09:32.927Z,99.99
2018-09-10T01:19:32.893Z,99.99
2018-09-10T01:29:32.909Z,99.99
2018-09-10T01:39:32.937Z,99.99
2018-09-10T01:49:32.924Z,99.99
2018-09-10T01:59:32.904Z,99.99
2018-09-10T02:09:32.875Z,99.99
2018-09-10T02:19:32.922Z,99.99
2018-09-10T02:29:32.888Z,99.99
2018-09-10T02:39:32.901Z,99.99
2018-09-10T02:49:32.902Z,99.99
2018-09-10T02:59:32.915Z,99.99
2018-09-10T03:09:32.910Z,99.99
2018-09-10T03:19:32.865Z,99.99
2018-09-10T03:29:32.895Z,99.99
2018-09-10T03:39:32.861Z,99.99
2018-09-10T03:49:32.873Z,99.99
2018-09-10T03:59:32.905Z,99.99
2018-09-10T04:09:32.888Z,99.99
2018-09-10T04:19:32.897Z,99.99
2018-09-10T04:29:32.888Z,99.99
2018-09-10T04:39:32.889Z,99.99
2018-09-10T04:49:32.904Z,99.99
2018-09-10T04:59:32.895Z,99.99
2018-09-10T05:09:32.898Z,99.99
2018-09-10T05:19:32.879Z,99.99
2018-09-10T05:29:32.891Z,99.99
2018-09-10T05:39:32.847Z,99.99
2018-09-10T05:49:32.878Z,99.99
2018-09-10T05:59:32.895Z,99.99
2018-09-10T06:09:32.871Z,99.99
2018-09-10T06:19:32.886Z,99.99
2018-09-10T06:29:32.908Z,99.99
2018-09-10T06:39:32.893Z,99.99
2018-09-10T06:49:32.901Z,99.99
2018-09-10T06:59:32.925Z,99.99
2018-09-10T07:09:33.049Z,99.99
2018-09-10T07:19:32.913Z,99.99
2018-09-10T07:29:32.909Z,99.99
2018-09-10T07:39:32.916Z,99.99
2018-09-10T07:49:32.892Z,99.99
2018-09-10T07:59:32.890Z,99.99
2018-09-10T08:09:32.930Z,99.99
2018-09-10T08:19:32.945Z,99.99
2018-09-10T08:29:32.921Z,99.99
2018-09-10T08:39:32.902Z,99.99
2018-09-10T08:49:32.932Z,99.99
2018-09-10T08:59:32.910Z,99.99
2018-09-10T09:09:32.912Z,99.99
2018-09-10T09:19:33.149Z,99.99
2018-09-10T09:29:32.923Z,99.99
2018-09-10T09:39:32.907Z,99.99
2018-09-10T09:49:32.952Z,99.99
2018-09-10T09:59:32.932Z,99.99
2018-09-10T10:09:32.908Z,99.65
2018-09-10T10:19:32.916Z,99.6
2018-09-10T10:29:32.988Z,99.6
2018-09-10T10:39:33.160Z,97.47
2018-09-10T10:49:32.954Z,97.38
2018-09-10T10:59:33.020Z,98.29
2018-09-10T11:09:32.985Z,98.1
2018-09-10T11:19:32.930Z,96.46
2018-09-10T11:29:32.949Z,92.5
2018-09-10T11:39:32.934Z,91.83
2018-09-10T11:49:33.008Z,91.35
2018-09-10T11:59:33.028Z,92.11
2018-09-10T12:09:32.936Z,93.66
2018-09-10T12:19:32.928Z,92.65
2018-09-10T12:29:33.003Z,91.83
2018-09-10T12:39:33.241Z,91.01
2018-09-10T12:49:32.972Z,89.7
2018-09-10T12:59:32.961Z,85.84
2018-09-10T13:09:32.936Z,79.54
2018-09-10T13:19:32.991Z,77.48
2018-09-10T13:29:32.941Z,77
2018-09-10T13:39:34.024Z,77.42
2018-09-10T13:49:32.967Z,78.54
2018-09-10T13:59:32.999Z,78.75
2018-09-10T14:09:32.954Z,79.37
2018-09-10T14:19:32.977Z,79.85
2018-09-10T14:29:32.973Z,80.82
2018-09-10T14:39:32.973Z,80.97
2018-09-10T14:49:33.009Z,80.97
2018-09-10T14:59:34.009Z,81.7
2018-09-10T15:09:32.983Z,83.05
2018-09-10T15:19:32.979Z,84.41
2018-09-10T15:29:33.047Z,85.17
2018-09-10T15:39:32.998Z,86.39
2018-09-10T15:49:33.108Z,86.19
2018-09-10T15:59:33.015Z,87.35
2018-09-10T16:09:32.995Z,86.58
2018-09-10T16:19:33.006Z,88.51
2018-09-10T16:29:33.000Z,88.12
2018-09-10T16:39:32.990Z,88.08
2018-09-10T16:49:33.039Z,89.72
2018-09-10T16:59:33.033Z,91.5
2018-09-10T17:09:33.042Z,91.79
2018-09-10T17:19:33.024Z,92.94
2018-09-10T17:29:32.998Z,94.82
2018-09-10T17:39:33.036Z,95.45
2018-09-10T17:49:33.003Z,97.09
2018-09-10T17:59:33.064Z,98.49
2018-09-10T18:09:33.152Z,99.99
2018-09-10T18:19:33.047Z,99.99
2018-09-10T18:29:33.107Z,99.99
2018-09-10T18:39:33.047Z,99.99
2018-09-10T18:49:33.000Z,99.99
2018-09-10T18:59:33.030Z,99.99
2018-09-10T19:09:33.035Z,99.99
2018-09-10T19:19:33.187Z,99.99
2018-09-10T19:29:33.037Z,99.99
2018-09-10T19:39:33.060Z,99.99
2018-09-10T19:49:33.078Z,99.99
2018-09-10T19:59:33.125Z,99.99
2018-09-10T20:09:33.086Z,99.99
2018-09-10T20:19:33.004Z,99.99
2018-09-10T20:29:33.344Z,99.99
2018-09-10T20:39:33.071Z,99.99
2018-09-10T20:49:33.125Z,99.99
2018-09-10T20:59:33.071Z,99.99
2018-09-10T21:09:33.115Z,99.99
2018-09-10T21:19:33.072Z,99.99
2018-09-10T21:29:33.021Z,99.99
2018-09-10T21:39:33.043Z,99.99
2018-09-10T21:49:33.033Z,99.99
2018-09-10T21:59:32.986Z,99.99
2018-09-10T22:09:33.011Z,99.99
2018-09-10T22:19:33.016Z,99.99
2018-09-10T22:29:33.019Z,99.99
2018-09-10T22:39:33.050Z,99.99
2018-09-10T22:49:33.003Z,99.99
2018-09-10T22:59:33.009Z,99.99
2018-09-10T23:09:33.755Z,99.99
2018-09-10T23:19:33.025Z,99.99
2018-09-10T23:29:33.024Z,99.99
2018-09-10T23:39:33.031Z,99.99
2018-09-10T23:49:33.029Z,99.99
2018-09-10T23:59:33.793Z,99.99
